21:55
Airports
History
Links
Donate
Help keep this website running!
PayPal
Bitcoin
This page is community maintained. The information is intended for PC simulator navigation or reference.
Always use approved charts for navigation.
EDXM
Sankt Michaelisdonn
Sankt Michaelisdonn (EDXM)
Sankt Michaelisdonn, Schleswig-Holstein, Germany (25693)
(C)
Lat/Lng:53° 58' 42" N / 9° 8' 35.98" E
53.978333 / 9.143327
Elevation:124'ft / 38mMSL
ID / ICAO:EDXM
Runways:1
Longest:08-26
Asphalt 692m / 2,270ft
Controlled:Yes
Nearby Weather21:20 GMT 2017-10-16
Nearby weather at ETMN, Nordholz located 24.5 nautical miles from EDXM
Altimeter: 30.06
Visibility: 6.2 statute miles
Wind: 9 knots (from 200°)
Temp: 19°c / 66°f
Humidity: 72.8%

METAR: ETMN 162120Z 20009KT 9999 19/14 Q1018 BLU+

(Powered by phpweather)
Airport Radio Frequencies
Tower: 122.5
Nearby VORs <50NM
Nearby NDBs
Runway 08 / 26
Dimensions:692 x 18m 2270' x 59'ft
Surface:Asphalt
Edge Lights:Low intensity
Runway 08 [A]Runway 26 [B]
Heading:076°TH 256°TH
Lat:
Lng:
53° 58' 39.25"N
9° 8' 17.27"E
53° 58' 44.74"N
9° 8' 54.69"E
User Notes and Comments
53° 58' 42" N / 9° 8' 35.98" E
Distance To
Airport ID:
Nearby Airports
(C) Heide Buesum 15.6 NM
EDXB NW 320°
(C) Hungriger Wolf 17.5 NM
EDHF E 86°
(C) Nordholz 24.5 NM
ETMN ( WX ) SW 233°
(U) RENDSBURG SCHACHTHOLM 25.0 NM
EDXR NE 47°
(C) Nordholz-Spieka 25.0 NM
EDXN SW 234°
(C) HOHN 28.1 NM
ETNH ( WX ) NE 34°
(C) Sankt Peter Ording 29.4 NM
EDXO NW 321°
VFR Chart
Flight Planning at SkyVector.com